Terminal Aerodrome Forecast
Issued by NWS

Home | Current Version | Previous Version | Graphics & Text | Print | Product List | Glossary Off
Versions: 1 2 3 4 5 6 7 8 9 10 11 12 13 14 15 16 17 18 19

000
FTUS43 KDDC 210523
TAFHYS
TAF
KHYS 210523Z 2106/2206 18020G30KT P6SM SCT200
     FM211500 33020G30KT P6SM BKN150=

USA.gov is the U.S. government's official web portal to all federal, state and local government web resources and services.